Oak Grove, Arkansas
Current Conditions -  °F | °C
As of 7:46 AM on Saturday 20 Dec 2014 (Local Time) from KBBG Reporting Station
Moderate Fog Moderate Fog  
Wind Chill: 37°   Ceiling: 200
Heat Index: 37°   Visibility: 0.12mi
Dew Point: 36°   Wind: 0mph
Humidity: 93%   Direction: NA
Pressure: 30.23"   Gusts: NA
Location:  36.46°N, 93.44°W
Report Text: KBBG 201346Z 00000KT 1/8SM FG OVC002 03/02 A3023
Loading
Personal Weather Stations






























Interactive Weather Map New forecast layout! Learn more

10-Day Weather Forecast

Advertisements
Track Severe Weather on mobile